sensor_id;sensor_type;location;lat;lon;timestamp;temperature;humidity
6407;DHT22;3236;51.022;6.818;2023-04-21T00:02:00;7.20;99.90
6407;DHT22;3236;51.022;6.818;2023-04-21T00:04:27;7.40;99.90
6407;DHT22;3236;51.022;6.818;2023-04-21T00:06:56;7.70;99.90
6407;DHT22;3236;51.022;6.818;2023-04-21T00:09:26;7.50;99.90
6407;DHT22;3236;51.022;6.818;2023-04-21T00:11:52;7.50;99.90
6407;DHT22;3236;51.022;6.818;2023-04-21T00:14:19;7.50;99.90
6407;DHT22;3236;51.022;6.818;2023-04-21T00:16:46;7.60;99.90
6407;DHT22;3236;51.022;6.818;2023-04-21T00:19:17;7.50;99.90
6407;DHT22;3236;51.022;6.818;2023-04-21T00:21:44;7.60;99.90
6407;DHT22;3236;51.022;6.818;2023-04-21T00:24:13;7.70;99.90
6407;DHT22;3236;51.022;6.818;2023-04-21T00:26:40;7.50;99.90
6407;DHT22;3236;51.022;6.818;2023-04-21T00:29:07;7.50;99.90
6407;DHT22;3236;51.022;6.818;2023-04-21T00:31:34;7.60;99.90
6407;DHT22;3236;51.022;6.818;2023-04-21T00:34:01;7.60;99.90
6407;DHT22;3236;51.022;6.818;2023-04-21T00:36:34;7.60;99.90
6407;DHT22;3236;51.022;6.818;2023-04-21T00:39:01;7.60;99.90
6407;DHT22;3236;51.022;6.818;2023-04-21T00:41:33;7.60;99.90
6407;DHT22;3236;51.022;6.818;2023-04-21T00:44:02;7.90;99.90
6407;DHT22;3236;51.022;6.818;2023-04-21T00:46:33;7.10;99.90
6407;DHT22;3236;51.022;6.818;2023-04-21T00:49:02;7.70;99.90
6407;DHT22;3236;51.022;6.818;2023-04-21T00:51:34;7.60;99.90
6407;DHT22;3236;51.022;6.818;2023-04-21T00:54:10;7.60;99.90
6407;DHT22;3236;51.022;6.818;2023-04-21T00:56:39;7.90;99.90
6407;DHT22;3236;51.022;6.818;2023-04-21T00:59:12;7.80;99.90
6407;DHT22;3236;51.022;6.818;2023-04-21T01:01:39;7.60;99.90
6407;DHT22;3236;51.022;6.818;2023-04-21T01:04:09;7.70;99.90
6407;DHT22;3236;51.022;6.818;2023-04-21T01:06:36;7.70;99.90
6407;DHT22;3236;51.022;6.818;2023-04-21T01:09:06;7.40;99.90
6407;DHT22;3236;51.022;6.818;2023-04-21T01:11:33;7.60;99.90
6407;DHT22;3236;51.022;6.818;2023-04-21T01:14:02;7.70;99.90
6407;DHT22;3236;51.022;6.818;2023-04-21T01:16:29;7.70;99.90
6407;DHT22;3236;51.022;6.818;2023-04-21T01:18:59;7.60;99.90
6407;DHT22;3236;51.022;6.818;2023-04-21T01:21:26;7.70;99.90
6407;DHT22;3236;51.022;6.818;2023-04-21T01:23:59;7.60;99.90
6407;DHT22;3236;51.022;6.818;2023-04-21T01:26:26;7.60;99.90
6407;DHT22;3236;51.022;6.818;2023-04-21T01:28:56;7.60;99.90
6407;DHT22;3236;51.022;6.818;2023-04-21T01:31:23;7.60;99.90
6407;DHT22;3236;51.022;6.818;2023-04-21T01:33:51;7.70;99.90
6407;DHT22;3236;51.022;6.818;2023-04-21T01:36:18;7.60;99.90
6407;DHT22;3236;51.022;6.818;2023-04-21T01:38:45;7.60;99.90
6407;DHT22;3236;51.022;6.818;2023-04-21T01:41:14;7.60;99.90
6407;DHT22;3236;51.022;6.818;2023-04-21T01:43:41;7.60;99.90
6407;DHT22;3236;51.022;6.818;2023-04-21T01:46:07;7.40;99.90
6407;DHT22;3236;51.022;6.818;2023-04-21T01:48:36;7.60;99.90
6407;DHT22;3236;51.022;6.818;2023-04-21T01:51:03;7.60;99.90
6407;DHT22;3236;51.022;6.818;2023-04-21T01:53:29;7.60;99.90
6407;DHT22;3236;51.022;6.818;2023-04-21T01:55:57;7.30;99.90
6407;DHT22;3236;51.022;6.818;2023-04-21T01:58:32;7.40;99.90
6407;DHT22;3236;51.022;6.818;2023-04-21T02:00:59;7.50;99.90
6407;DHT22;3236;51.022;6.818;2023-04-21T02:03:26;7.40;99.90
6407;DHT22;3236;51.022;6.818;2023-04-21T02:05:53;7.50;99.90
6407;DHT22;3236;51.022;6.818;2023-04-21T02:08:20;7.60;99.90
6407;DHT22;3236;51.022;6.818;2023-04-21T02:10:47;7.60;99.90
6407;DHT22;3236;51.022;6.818;2023-04-21T02:13:14;7.60;99.90
6407;DHT22;3236;51.022;6.818;2023-04-21T02:15:43;7.60;99.90
6407;DHT22;3236;51.022;6.818;2023-04-21T02:18:09;7.60;99.90
6407;DHT22;3236;51.022;6.818;2023-04-21T02:20:38;7.50;99.90
6407;DHT22;3236;51.022;6.818;2023-04-21T02:23:08;7.50;99.90
6407;DHT22;3236;51.022;6.818;2023-04-21T02:25:35;7.40;99.90
6407;DHT22;3236;51.022;6.818;2023-04-21T02:28:02;7.30;99.90
6407;DHT22;3236;51.022;6.818;2023-04-21T02:30:30;7.20;99.90
6407;DHT22;3236;51.022;6.818;2023-04-21T02:33:00;7.10;99.90
6407;DHT22;3236;51.022;6.818;2023-04-21T02:35:31;7.00;99.90
6407;DHT22;3236;51.022;6.818;2023-04-21T02:37:59;7.00;99.90
6407;DHT22;3236;51.022;6.818;2023-04-21T02:40:34;6.80;99.90
6407;DHT22;3236;51.022;6.818;2023-04-21T02:43:01;6.60;99.90
6407;DHT22;3236;51.022;6.818;2023-04-21T02:45:28;6.90;99.90
6407;DHT22;3236;51.022;6.818;2023-04-21T02:47:55;7.00;99.90
6407;DHT22;3236;51.022;6.818;2023-04-21T02:50:24;7.00;99.90
6407;DHT22;3236;51.022;6.818;2023-04-21T02:52:51;7.00;99.90
6407;DHT22;3236;51.022;6.818;2023-04-21T02:55:18;7.00;99.90
6407;DHT22;3236;51.022;6.818;2023-04-21T03:01:08;6.60;99.90
6407;DHT22;3236;51.022;6.818;2023-04-21T03:03:35;6.40;99.90
6407;DHT22;3236;51.022;6.818;2023-04-21T03:06:05;6.60;99.90
6407;DHT22;3236;51.022;6.818;2023-04-21T03:08:32;6.60;99.90
6407;DHT22;3236;51.022;6.818;2023-04-21T03:11:00;6.40;99.90
6407;DHT22;3236;51.022;6.818;2023-04-21T03:13:27;6.30;99.90
6407;DHT22;3236;51.022;6.818;2023-04-21T03:15:54;6.30;99.90
6407;DHT22;3236;51.022;6.818;2023-04-21T03:20:57;7.00;99.90
6407;DHT22;3236;51.022;6.818;2023-04-21T03:23:25;6.00;99.90
6407;DHT22;3236;51.022;6.818;2023-04-21T03:25:52;5.90;99.90
6407;DHT22;3236;51.022;6.818;2023-04-21T03:28:19;5.90;99.90
6407;DHT22;3236;51.022;6.818;2023-04-21T03:30:46;5.70;99.90
6407;DHT22;3236;51.022;6.818;2023-04-21T03:33:13;5.70;99.90
6407;DHT22;3236;51.022;6.818;2023-04-21T03:35:43;5.90;99.90
6407;DHT22;3236;51.022;6.818;2023-04-21T03:38:13;5.70;99.90
6407;DHT22;3236;51.022;6.818;2023-04-21T03:40:48;5.60;99.90
6407;DHT22;3236;51.022;6.818;2023-04-21T03:43:16;5.60;99.90
6407;DHT22;3236;51.022;6.818;2023-04-21T03:45:43;5.60;99.90
6407;DHT22;3236;51.022;6.818;2023-04-21T03:48:10;5.60;99.90
6407;DHT22;3236;51.022;6.818;2023-04-21T03:50:37;5.50;99.90
6407;DHT22;3236;51.022;6.818;2023-04-21T03:53:04;5.60;99.90
6407;DHT22;3236;51.022;6.818;2023-04-21T03:55:32;5.60;99.90
6407;DHT22;3236;51.022;6.818;2023-04-21T03:58:04;5.70;99.90
6407;DHT22;3236;51.022;6.818;2023-04-21T04:00:31;5.60;99.90
6407;DHT22;3236;51.022;6.818;2023-04-21T04:02:58;5.50;99.90
6407;DHT22;3236;51.022;6.818;2023-04-21T04:05:25;5.70;99.90
6407;DHT22;3236;51.022;6.818;2023-04-21T04:07:52;5.60;99.90
6407;DHT22;3236;51.022;6.818;2023-04-21T04:10:25;5.50;99.90
6407;DHT22;3236;51.022;6.818;2023-04-21T04:12:52;5.40;99.90
6407;DHT22;3236;51.022;6.818;2023-04-21T04:15:21;5.50;99.90
6407;DHT22;3236;51.022;6.818;2023-04-21T04:17:48;5.40;99.90
6407;DHT22;3236;51.022;6.818;2023-04-21T04:20:18;5.40;99.90
6407;DHT22;3236;51.022;6.818;2023-04-21T04:22:44;5.30;99.90
6407;DHT22;3236;51.022;6.818;2023-04-21T04:25:11;5.40;99.90
6407;DHT22;3236;51.022;6.818;2023-04-21T04:27:41;5.40;99.90
6407;DHT22;3236;51.022;6.818;2023-04-21T04:30:16;5.80;99.90
6407;DHT22;3236;51.022;6.818;2023-04-21T04:32:45;6.00;99.90
6407;DHT22;3236;51.022;6.818;2023-04-21T04:35:12;6.00;99.90
6407;DHT22;3236;51.022;6.818;2023-04-21T04:37:40;6.00;99.90
6407;DHT22;3236;51.022;6.818;2023-04-21T04:40:07;6.10;99.90
6407;DHT22;3236;51.022;6.818;2023-04-21T04:42:36;6.00;99.90
6407;DHT22;3236;51.022;6.818;2023-04-21T04:45:05;5.90;99.90
6407;DHT22;3236;51.022;6.818;2023-04-21T04:47:36;5.80;99.90
6407;DHT22;3236;51.022;6.818;2023-04-21T04:50:05;5.80;99.90
6407;DHT22;3236;51.022;6.818;2023-04-21T04:52:35;6.10;99.90
6407;DHT22;3236;51.022;6.818;2023-04-21T04:55:03;5.90;99.90
6407;DHT22;3236;51.022;6.818;2023-04-21T04:57:30;5.90;99.90
6407;DHT22;3236;51.022;6.818;2023-04-21T04:59:57;5.80;99.90
6407;DHT22;3236;51.022;6.818;2023-04-21T05:02:27;5.90;99.90
6407;DHT22;3236;51.022;6.818;2023-04-21T05:04:54;6.10;99.90
6407;DHT22;3236;51.022;6.818;2023-04-21T05:07:22;6.10;99.90
6407;DHT22;3236;51.022;6.818;2023-04-21T05:09:52;6.30;99.90
6407;DHT22;3236;51.022;6.818;2023-04-21T05:12:19;6.40;99.90
6407;DHT22;3236;51.022;6.818;2023-04-21T05:14:46;6.40;99.90
6407;DHT22;3236;51.022;6.818;2023-04-21T05:19:40;6.60;99.90
6407;DHT22;3236;51.022;6.818;2023-04-21T05:22:07;6.50;99.90
6407;DHT22;3236;51.022;6.818;2023-04-21T05:24:36;6.70;99.90
6407;DHT22;3236;51.022;6.818;2023-04-21T05:27:03;6.60;99.90
6407;DHT22;3236;51.022;6.818;2023-04-21T05:29:30;6.70;99.90
6407;DHT22;3236;51.022;6.818;2023-04-21T05:31:58;6.60;99.90
6407;DHT22;3236;51.022;6.818;2023-04-21T05:34:26;6.60;99.90
6407;DHT22;3236;51.022;6.818;2023-04-21T05:36:54;6.50;99.90
6407;DHT22;3236;51.022;6.818;2023-04-21T05:39:27;6.70;99.90
6407;DHT22;3236;51.022;6.818;2023-04-21T05:41:57;6.70;99.90
6407;DHT22;3236;51.022;6.818;2023-04-21T05:44:25;6.70;99.90
6407;DHT22;3236;51.022;6.818;2023-04-21T05:46:52;6.70;99.90
6407;DHT22;3236;51.022;6.818;2023-04-21T05:49:18;6.70;99.90
6407;DHT22;3236;51.022;6.818;2023-04-21T05:51:45;6.60;99.90
6407;DHT22;3236;51.022;6.818;2023-04-21T05:54:13;6.60;99.90
6407;DHT22;3236;51.022;6.818;2023-04-21T05:56:41;6.60;99.90
6407;DHT22;3236;51.022;6.818;2023-04-21T05:59:12;6.70;99.90
6407;DHT22;3236;51.022;6.818;2023-04-21T06:01:39;6.70;99.90
6407;DHT22;3236;51.022;6.818;2023-04-21T06:04:06;6.70;99.90
6407;DHT22;3236;51.022;6.818;2023-04-21T06:06:33;6.70;99.90
6407;DHT22;3236;51.022;6.818;2023-04-21T06:09:00;6.80;99.90
6407;DHT22;3236;51.022;6.818;2023-04-21T06:11:27;6.90;99.90
6407;DHT22;3236;51.022;6.818;2023-04-21T06:13:54;7.00;99.90
6407;DHT22;3236;51.022;6.818;2023-04-21T06:16:39;7.30;99.90
6407;DHT22;3236;51.022;6.818;2023-04-21T06:19:06;7.30;99.90
6407;DHT22;3236;51.022;6.818;2023-04-21T06:21:33;7.00;99.90
6407;DHT22;3236;51.022;6.818;2023-04-21T06:24:00;7.40;99.90
6407;DHT22;3236;51.022;6.818;2023-04-21T06:26:27;7.40;99.90
6407;DHT22;3236;51.022;6.818;2023-04-21T06:28:55;7.50;99.90
6407;DHT22;3236;51.022;6.818;2023-04-21T06:31:22;7.50;99.90
6407;DHT22;3236;51.022;6.818;2023-04-21T06:33:50;7.60;99.90
6407;DHT22;3236;51.022;6.818;2023-04-21T06:36:18;7.70;99.90
6407;DHT22;3236;51.022;6.818;2023-04-21T06:38:46;7.80;99.90
6407;DHT22;3236;51.022;6.818;2023-04-21T06:41:13;8.30;99.90
6407;DHT22;3236;51.022;6.818;2023-04-21T06:43:40;8.30;99.90
6407;DHT22;3236;51.022;6.818;2023-04-21T06:46:07;7.80;99.90
6407;DHT22;3236;51.022;6.818;2023-04-21T06:48:40;8.00;99.90
6407;DHT22;3236;51.022;6.818;2023-04-21T06:51:08;8.00;99.90
6407;DHT22;3236;51.022;6.818;2023-04-21T06:53:35;8.30;99.90
6407;DHT22;3236;51.022;6.818;2023-04-21T06:56:03;9.30;99.90
6407;DHT22;3236;51.022;6.818;2023-04-21T06:58:30;8.20;99.90
6407;DHT22;3236;51.022;6.818;2023-04-21T07:00:57;8.10;99.90
6407;DHT22;3236;51.022;6.818;2023-04-21T07:03:24;8.20;99.90
6407;DHT22;3236;51.022;6.818;2023-04-21T07:05:51;8.20;99.90
6407;DHT22;3236;51.022;6.818;2023-04-21T07:08:19;8.20;99.90
6407;DHT22;3236;51.022;6.818;2023-04-21T07:10:46;8.20;99.90
6407;DHT22;3236;51.022;6.818;2023-04-21T07:13:13;8.20;99.90
6407;DHT22;3236;51.022;6.818;2023-04-21T07:15:43;8.30;99.90
6407;DHT22;3236;51.022;6.818;2023-04-21T07:18:10;8.20;99.90
6407;DHT22;3236;51.022;6.818;2023-04-21T07:20:37;8.40;99.90
6407;DHT22;3236;51.022;6.818;2023-04-21T07:23:06;8.70;99.90
6407;DHT22;3236;51.022;6.818;2023-04-21T07:25:35;8.70;99.90
6407;DHT22;3236;51.022;6.818;2023-04-21T07:28:02;8.50;99.90
6407;DHT22;3236;51.022;6.818;2023-04-21T07:30:29;8.70;99.90
6407;DHT22;3236;51.022;6.818;2023-04-21T07:32:56;8.50;99.90
6407;DHT22;3236;51.022;6.818;2023-04-21T07:35:24;8.90;99.90
6407;DHT22;3236;51.022;6.818;2023-04-21T07:37:51;9.00;99.90
6407;DHT22;3236;51.022;6.818;2023-04-21T07:42:47;9.20;99.90
6407;DHT22;3236;51.022;6.818;2023-04-21T07:45:15;9.30;99.90
6407;DHT22;3236;51.022;6.818;2023-04-21T07:47:42;9.10;99.90
6407;DHT22;3236;51.022;6.818;2023-04-21T07:50:10;9.40;99.90
6407;DHT22;3236;51.022;6.818;2023-04-21T07:52:38;9.40;99.90
6407;DHT22;3236;51.022;6.818;2023-04-21T07:55:05;9.40;99.90
6407;DHT22;3236;51.022;6.818;2023-04-21T08:00:06;9.40;99.90
6407;DHT22;3236;51.022;6.818;2023-04-21T08:02:34;9.70;99.90
6407;DHT22;3236;51.022;6.818;2023-04-21T08:05:00;9.60;99.90
6407;DHT22;3236;51.022;6.818;2023-04-21T08:07:29;9.60;99.90
6407;DHT22;3236;51.022;6.818;2023-04-21T08:09:56;9.80;99.90
6407;DHT22;3236;51.022;6.818;2023-04-21T08:12:23;10.10;99.90
6407;DHT22;3236;51.022;6.818;2023-04-21T08:14:50;10.00;99.90
6407;DHT22;3236;51.022;6.818;2023-04-21T08:17:18;10.00;99.90
6407;DHT22;3236;51.022;6.818;2023-04-21T08:19:45;10.10;99.90
6407;DHT22;3236;51.022;6.818;2023-04-21T08:22:12;9.90;99.90
6407;DHT22;3236;51.022;6.818;2023-04-21T08:24:40;9.80;99.90
6407;DHT22;3236;51.022;6.818;2023-04-21T08:27:06;10.10;99.90
6407;DHT22;3236;51.022;6.818;2023-04-21T08:29:33;10.10;99.90
6407;DHT22;3236;51.022;6.818;2023-04-21T08:32:00;10.20;99.90
6407;DHT22;3236;51.022;6.818;2023-04-21T08:36:56;10.40;99.90
6407;DHT22;3236;51.022;6.818;2023-04-21T08:39:24;10.50;99.90
6407;DHT22;3236;51.022;6.818;2023-04-21T08:44:19;10.60;99.90
6407;DHT22;3236;51.022;6.818;2023-04-21T08:46:48;10.80;99.90
6407;DHT22;3236;51.022;6.818;2023-04-21T08:49:19;11.00;99.90
6407;DHT22;3236;51.022;6.818;2023-04-21T08:51:48;12.00;99.90
6407;DHT22;3236;51.022;6.818;2023-04-21T08:54:16;11.40;99.90
6407;DHT22;3236;51.022;6.818;2023-04-21T08:56:43;11.40;99.90
6407;DHT22;3236;51.022;6.818;2023-04-21T08:59:19;11.30;99.90
6407;DHT22;3236;51.022;6.818;2023-04-21T09:02:05;11.30;99.90
6407;DHT22;3236;51.022;6.818;2023-04-21T09:04:33;11.50;99.90
6407;DHT22;3236;51.022;6.818;2023-04-21T09:07:03;11.50;99.90
6407;DHT22;3236;51.022;6.818;2023-04-21T09:11:57;11.60;99.90
6407;DHT22;3236;51.022;6.818;2023-04-21T09:14:30;12.10;99.90
6407;DHT22;3236;51.022;6.818;2023-04-21T09:17:01;12.10;99.90
6407;DHT22;3236;51.022;6.818;2023-04-21T09:19:29;12.10;99.90
6407;DHT22;3236;51.022;6.818;2023-04-21T09:21:56;12.50;99.90
6407;DHT22;3236;51.022;6.818;2023-04-21T09:26:53;13.00;99.90
6407;DHT22;3236;51.022;6.818;2023-04-21T09:29:21;12.90;99.90
6407;DHT22;3236;51.022;6.818;2023-04-21T09:34:18;13.50;99.90
6407;DHT22;3236;51.022;6.818;2023-04-21T09:36:45;13.30;99.90
6407;DHT22;3236;51.022;6.818;2023-04-21T09:44:11;13.70;99.90
6407;DHT22;3236;51.022;6.818;2023-04-21T09:46:43;14.00;99.90
6407;DHT22;3236;51.022;6.818;2023-04-21T09:49:21;14.50;99.90
6407;DHT22;3236;51.022;6.818;2023-04-21T09:51:49;14.30;99.90
6407;DHT22;3236;51.022;6.818;2023-04-21T09:54:18;14.50;99.90
6407;DHT22;3236;51.022;6.818;2023-04-21T09:56:49;14.50;99.90
6407;DHT22;3236;51.022;6.818;2023-04-21T09:59:23;14.60;99.90
6407;DHT22;3236;51.022;6.818;2023-04-21T10:01:53;14.30;99.90
6407;DHT22;3236;51.022;6.818;2023-04-21T10:06:50;15.40;99.90
6407;DHT22;3236;51.022;6.818;2023-04-21T10:09:19;15.60;99.90
6407;DHT22;3236;51.022;6.818;2023-04-21T10:14:18;15.10;99.90
6407;DHT22;3236;51.022;6.818;2023-04-21T10:16:55;15.20;99.90
6407;DHT22;3236;51.022;6.818;2023-04-21T10:19:23;15.20;99.90
6407;DHT22;3236;51.022;6.818;2023-04-21T10:21:51;15.40;99.90
6407;DHT22;3236;51.022;6.818;2023-04-21T10:26:50;16.10;99.90
6407;DHT22;3236;51.022;6.818;2023-04-21T10:31:57;15.50;99.90
6407;DHT22;3236;51.022;6.818;2023-04-21T10:34:35;15.50;99.90
6407;DHT22;3236;51.022;6.818;2023-04-21T10:39:52;16.10;99.90
6407;DHT22;3236;51.022;6.818;2023-04-21T10:42:23;16.20;99.90
6407;DHT22;3236;51.022;6.818;2023-04-21T10:44:52;16.40;99.90
6407;DHT22;3236;51.022;6.818;2023-04-21T10:47:26;16.30;99.90
6407;DHT22;3236;51.022;6.818;2023-04-21T10:49:56;16.50;99.90
6407;DHT22;3236;51.022;6.818;2023-04-21T10:52:31;17.40;99.90
6407;DHT22;3236;51.022;6.818;2023-04-21T10:55:07;18.20;99.90
6407;DHT22;3236;51.022;6.818;2023-04-21T10:57:41;18.30;99.90
6407;DHT22;3236;51.022;6.818;2023-04-21T11:00:11;17.80;99.90
6407;DHT22;3236;51.022;6.818;2023-04-21T11:02:38;18.10;99.90
6407;DHT22;3236;51.022;6.818;2023-04-21T11:05:06;18.40;99.90
6407;DHT22;3236;51.022;6.818;2023-04-21T11:07:35;18.10;99.90
6407;DHT22;3236;51.022;6.818;2023-04-21T11:10:05;19.10;99.90
6407;DHT22;3236;51.022;6.818;2023-04-21T11:12:33;19.10;99.90
6407;DHT22;3236;51.022;6.818;2023-04-21T11:15:05;19.10;99.90
6407;DHT22;3236;51.022;6.818;2023-04-21T11:17:34;20.10;99.90
6407;DHT22;3236;51.022;6.818;2023-04-21T11:20:03;19.40;99.90
6407;DHT22;3236;51.022;6.818;2023-04-21T11:22:31;20.00;99.90
6407;DHT22;3236;51.022;6.818;2023-04-21T11:24:59;19.90;99.90
6407;DHT22;3236;51.022;6.818;2023-04-21T11:27:33;19.30;99.90
6407;DHT22;3236;51.022;6.818;2023-04-21T11:30:04;19.50;99.90
6407;DHT22;3236;51.022;6.818;2023-04-21T11:32:35;21.10;99.90
6407;DHT22;3236;51.022;6.818;2023-04-21T11:35:02;21.10;99.10
6407;DHT22;3236;51.022;6.818;2023-04-21T11:37:31;22.80;97.30
6407;DHT22;3236;51.022;6.818;2023-04-21T11:39:59;23.80;96.80
6407;DHT22;3236;51.022;6.818;2023-04-21T11:42:30;23.60;95.50
6407;DHT22;3236;51.022;6.818;2023-04-21T11:44:57;22.80;91.10
6407;DHT22;3236;51.022;6.818;2023-04-21T11:47:27;22.90;95.20
6407;DHT22;3236;51.022;6.818;2023-04-21T11:49:55;22.90;94.10
6407;DHT22;3236;51.022;6.818;2023-04-21T11:52:30;22.20;93.30
6407;DHT22;3236;51.022;6.818;2023-04-21T11:54:59;21.30;93.70
6407;DHT22;3236;51.022;6.818;2023-04-21T11:57:27;20.30;95.50
6407;DHT22;3236;51.022;6.818;2023-04-21T11:59:57;20.10;95.00
6407;DHT22;3236;51.022;6.818;2023-04-21T12:02:30;19.90;96.50
6407;DHT22;3236;51.022;6.818;2023-04-21T12:04:58;21.30;94.20
6407;DHT22;3236;51.022;6.818;2023-04-21T12:07:27;21.30;94.60
6407;DHT22;3236;51.022;6.818;2023-04-21T12:09:55;20.90;93.70
6407;DHT22;3236;51.022;6.818;2023-04-21T12:12:22;20.80;93.80
6407;DHT22;3236;51.022;6.818;2023-04-21T12:17:18;21.10;95.20
6407;DHT22;3236;51.022;6.818;2023-04-21T12:19:47;23.00;92.60
6407;DHT22;3236;51.022;6.818;2023-04-21T12:22:15;23.80;90.30
6407;DHT22;3236;51.022;6.818;2023-04-21T12:27:10;23.60;84.80
6407;DHT22;3236;51.022;6.818;2023-04-21T12:29:38;23.90;85.60
6407;DHT22;3236;51.022;6.818;2023-04-21T12:32:05;22.90;83.50
6407;DHT22;3236;51.022;6.818;2023-04-21T12:34:32;23.00;86.00
6407;DHT22;3236;51.022;6.818;2023-04-21T12:37:01;22.90;83.70
6407;DHT22;3236;51.022;6.818;2023-04-21T12:39:28;23.50;85.70
6407;DHT22;3236;51.022;6.818;2023-04-21T12:41:55;23.70;85.70
6407;DHT22;3236;51.022;6.818;2023-04-21T12:44:23;22.20;83.90
6407;DHT22;3236;51.022;6.818;2023-04-21T12:46:50;22.20;88.40
6407;DHT22;3236;51.022;6.818;2023-04-21T12:49:17;22.50;91.20
6407;DHT22;3236;51.022;6.818;2023-04-21T12:51:45;22.10;87.40
6407;DHT22;3236;51.022;6.818;2023-04-21T12:54:13;21.00;90.90
6407;DHT22;3236;51.022;6.818;2023-04-21T12:56:43;20.70;90.70
6407;DHT22;3236;51.022;6.818;2023-04-21T12:59:11;21.20;91.50
6407;DHT22;3236;51.022;6.818;2023-04-21T13:01:43;21.10;91.10
6407;DHT22;3236;51.022;6.818;2023-04-21T13:04:18;20.30;91.70
6407;DHT22;3236;51.022;6.818;2023-04-21T13:06:47;20.20;91.80
6407;DHT22;3236;51.022;6.818;2023-04-21T13:09:23;20.20;94.10
6407;DHT22;3236;51.022;6.818;2023-04-21T13:14:18;21.00;93.20
6407;DHT22;3236;51.022;6.818;2023-04-21T13:16:44;21.00;92.60
6407;DHT22;3236;51.022;6.818;2023-04-21T13:19:12;21.20;91.20
6407;DHT22;3236;51.022;6.818;2023-04-21T13:21:39;21.80;91.60
6407;DHT22;3236;51.022;6.818;2023-04-21T13:24:06;22.20;91.10
6407;DHT22;3236;51.022;6.818;2023-04-21T13:26:35;21.80;91.90
6407;DHT22;3236;51.022;6.818;2023-04-21T13:29:03;21.00;90.10
6407;DHT22;3236;51.022;6.818;2023-04-21T13:31:30;20.80;93.50
6407;DHT22;3236;51.022;6.818;2023-04-21T13:33:57;21.60;92.80
6407;DHT22;3236;51.022;6.818;2023-04-21T13:36:24;21.20;90.90
6407;DHT22;3236;51.022;6.818;2023-04-21T13:38:51;21.30;90.30
6407;DHT22;3236;51.022;6.818;2023-04-21T13:41:20;21.10;90.30
6407;DHT22;3236;51.022;6.818;2023-04-21T13:43:49;21.80;91.40
6407;DHT22;3236;51.022;6.818;2023-04-21T13:46:17;21.30;90.70
6407;DHT22;3236;51.022;6.818;2023-04-21T13:48:45;23.40;92.80
6407;DHT22;3236;51.022;6.818;2023-04-21T13:51:12;25.40;83.30
6407;DHT22;3236;51.022;6.818;2023-04-21T13:53:38;24.80;83.20
6407;DHT22;3236;51.022;6.818;2023-04-21T13:56:11;24.00;83.20
6407;DHT22;3236;51.022;6.818;2023-04-21T13:58:39;23.60;84.40
6407;DHT22;3236;51.022;6.818;2023-04-21T14:01:07;23.30;88.80
6407;DHT22;3236;51.022;6.818;2023-04-21T14:03:34;23.20;88.10
6407;DHT22;3236;51.022;6.818;2023-04-21T14:06:01;22.60;87.00
6407;DHT22;3236;51.022;6.818;2023-04-21T14:08:28;21.30;89.40
6407;DHT22;3236;51.022;6.818;2023-04-21T14:10:56;20.40;91.80
6407;DHT22;3236;51.022;6.818;2023-04-21T14:13:23;20.60;92.10
6407;DHT22;3236;51.022;6.818;2023-04-21T14:15:53;21.00;91.50
6407;DHT22;3236;51.022;6.818;2023-04-21T14:18:22;22.10;90.40
6407;DHT22;3236;51.022;6.818;2023-04-21T14:20:49;22.70;88.70
6407;DHT22;3236;51.022;6.818;2023-04-21T14:23:16;22.60;87.30
6407;DHT22;3236;51.022;6.818;2023-04-21T14:25:43;20.80;89.90
6407;DHT22;3236;51.022;6.818;2023-04-21T14:28:10;20.30;90.80
6407;DHT22;3236;51.022;6.818;2023-04-21T14:30:37;20.90;89.60
6407;DHT22;3236;51.022;6.818;2023-04-21T14:33:04;20.90;90.00
6407;DHT22;3236;51.022;6.818;2023-04-21T14:35:36;21.70;87.30
6407;DHT22;3236;51.022;6.818;2023-04-21T14:38:03;20.50;89.20
6407;DHT22;3236;51.022;6.818;2023-04-21T14:40:30;20.40;90.50
6407;DHT22;3236;51.022;6.818;2023-04-21T14:42:57;20.80;91.30
6407;DHT22;3236;51.022;6.818;2023-04-21T14:45:27;21.10;89.80
6407;DHT22;3236;51.022;6.818;2023-04-21T14:47:55;21.60;86.00
6407;DHT22;3236;51.022;6.818;2023-04-21T14:50:22;21.20;89.80
6407;DHT22;3236;51.022;6.818;2023-04-21T14:52:51;22.20;88.80
6407;DHT22;3236;51.022;6.818;2023-04-21T14:55:20;22.40;85.50
6407;DHT22;3236;51.022;6.818;2023-04-21T14:57:47;23.60;87.20
6407;DHT22;3236;51.022;6.818;2023-04-21T15:00:17;24.00;83.60
6407;DHT22;3236;51.022;6.818;2023-04-21T15:02:47;23.00;83.80
6407;DHT22;3236;51.022;6.818;2023-04-21T15:05:14;22.70;83.20
6407;DHT22;3236;51.022;6.818;2023-04-21T15:07:41;21.80;81.50
6407;DHT22;3236;51.022;6.818;2023-04-21T15:10:13;22.10;79.80
6407;DHT22;3236;51.022;6.818;2023-04-21T15:12:40;23.50;79.70
6407;DHT22;3236;51.022;6.818;2023-04-21T15:15:09;23.90;79.60
6407;DHT22;3236;51.022;6.818;2023-04-21T15:20:04;23.80;75.10
6407;DHT22;3236;51.022;6.818;2023-04-21T15:22:31;23.00;77.30
6407;DHT22;3236;51.022;6.818;2023-04-21T15:24:58;22.70;78.00
6407;DHT22;3236;51.022;6.818;2023-04-21T15:27:27;21.40;80.20
6407;DHT22;3236;51.022;6.818;2023-04-21T15:29:54;21.30;80.70
6407;DHT22;3236;51.022;6.818;2023-04-21T15:32:22;20.80;83.70
6407;DHT22;3236;51.022;6.818;2023-04-21T15:34:52;21.50;82.70
6407;DHT22;3236;51.022;6.818;2023-04-21T15:37:19;21.60;82.60
6407;DHT22;3236;51.022;6.818;2023-04-21T15:39:46;22.50;81.60
6407;DHT22;3236;51.022;6.818;2023-04-21T15:42:23;23.10;77.50
6407;DHT22;3236;51.022;6.818;2023-04-21T15:44:51;23.00;76.40
6407;DHT22;3236;51.022;6.818;2023-04-21T15:47:19;22.90;75.10
6407;DHT22;3236;51.022;6.818;2023-04-21T15:49:47;22.10;77.60
6407;DHT22;3236;51.022;6.818;2023-04-21T15:54:44;22.30;74.80
6407;DHT22;3236;51.022;6.818;2023-04-21T15:57:12;21.90;73.50
6407;DHT22;3236;51.022;6.818;2023-04-21T15:59:41;20.60;83.50
6407;DHT22;3236;51.022;6.818;2023-04-21T16:02:09;20.60;84.00
6407;DHT22;3236;51.022;6.818;2023-04-21T16:04:37;19.80;79.50
6407;DHT22;3236;51.022;6.818;2023-04-21T16:09:31;18.80;84.50
6407;DHT22;3236;51.022;6.818;2023-04-21T16:11:59;18.50;86.80
6407;DHT22;3236;51.022;6.818;2023-04-21T16:14:33;18.60;87.30
6407;DHT22;3236;51.022;6.818;2023-04-21T16:17:00;18.20;90.90
6407;DHT22;3236;51.022;6.818;2023-04-21T16:19:28;18.40;90.50
6407;DHT22;3236;51.022;6.818;2023-04-21T16:21:56;18.30;90.30
6407;DHT22;3236;51.022;6.818;2023-04-21T16:24:23;18.30;91.00
6407;DHT22;3236;51.022;6.818;2023-04-21T16:26:50;18.30;88.00
6407;DHT22;3236;51.022;6.818;2023-04-21T16:29:19;18.10;88.70
6407;DHT22;3236;51.022;6.818;2023-04-21T16:31:46;18.10;89.10
6407;DHT22;3236;51.022;6.818;2023-04-21T16:34:16;18.80;88.70
6407;DHT22;3236;51.022;6.818;2023-04-21T16:39:12;16.60;90.90
6407;DHT22;3236;51.022;6.818;2023-04-21T16:41:39;16.60;91.10
6407;DHT22;3236;51.022;6.818;2023-04-21T16:44:06;16.50;90.70
6407;DHT22;3236;51.022;6.818;2023-04-21T16:46:33;16.30;91.70
6407;DHT22;3236;51.022;6.818;2023-04-21T16:49:10;16.40;91.40
6407;DHT22;3236;51.022;6.818;2023-04-21T16:51:37;16.40;92.50
6407;DHT22;3236;51.022;6.818;2023-04-21T16:54:10;16.30;92.80
6407;DHT22;3236;51.022;6.818;2023-04-21T16:56:38;16.50;93.20
6407;DHT22;3236;51.022;6.818;2023-04-21T16:59:05;16.90;94.40
6407;DHT22;3236;51.022;6.818;2023-04-21T17:01:32;16.90;94.70
6407;DHT22;3236;51.022;6.818;2023-04-21T17:04:01;17.00;94.10
6407;DHT22;3236;51.022;6.818;2023-04-21T17:06:28;16.70;94.90
6407;DHT22;3236;51.022;6.818;2023-04-21T17:08:54;16.50;95.10
6407;DHT22;3236;51.022;6.818;2023-04-21T17:11:26;16.40;95.70
6407;DHT22;3236;51.022;6.818;2023-04-21T17:13:54;16.60;96.00
6407;DHT22;3236;51.022;6.818;2023-04-21T17:16:22;16.40;96.30
6407;DHT22;3236;51.022;6.818;2023-04-21T17:18:49;15.50;96.70